Time;durP1;ratioP1;P1;durP2;ratioP2;P2;SDS_P1;SDS_P2;PMS_P1;PMS_P2;Temp;Humidity;BMP_temperature;BMP_pressure;BME280_temperature;BME280_humidity;BME280_pressure;Samples;Min_cycle;Max_cycle;Signal;HPM_P1;HPM_P2
2023/04/27 00:00:47;;;;;;;109.93;13.82;;;;;;;;;;4947657;29;20039;-56
2023/04/27 00:03:14;;;;;;;77.57;11.18;;;;;;;;;;4947605;29;20476;-58
2023/04/27 00:05:41;;;;;;;76.20;11.02;;;;;;;;;;4951256;29;20094;-57
2023/04/27 00:08:08;;;;;;;140.10;16.40;;;;;;;;;;4950701;28;20521;-55
2023/04/27 00:10:35;;;;;;;59.50;10.15;;;;;;;;;;4950886;29;20057;-58
2023/04/27 00:13:01;;;;;;;75.90;11.00;;;;;;;;;;4951236;28;20047;-57
2023/04/27 00:15:28;;;;;;;136.20;15.35;;;;;;;;;;4951164;28;20392;-55
2023/04/27 00:17:56;;;;;;;72.78;10.90;;;;;;;;;;4951458;29;20051;-56
2023/04/27 00:20:22;;;;;;;60.25;10.70;;;;;;;;;;4951308;28;20043;-57
2023/04/27 00:22:49;;;;;;;117.50;14.18;;;;;;;;;;4942597;28;20369;-57
2023/04/27 00:25:16;;;;;;;79.20;11.98;;;;;;;;;;4949588;28;20054;-55
2023/04/27 00:27:42;;;;;;;93.50;13.38;;;;;;;;;;4950734;29;20074;-59
2023/04/27 00:30:09;;;;;;;139.27;14.75;;;;;;;;;;4948783;29;20053;-57
2023/04/27 00:32:35;;;;;;;72.57;11.32;;;;;;;;;;4950235;28;20134;-59
2023/04/27 00:35:02;;;;;;;95.07;12.45;;;;;;;;;;4947943;28;20569;-58
2023/04/27 00:37:29;;;;;;;125.88;14.45;;;;;;;;;;4950405;28;20094;-59
2023/04/27 00:39:55;;;;;;;76.85;10.82;;;;;;;;;;4950736;28;20036;-58
2023/04/27 00:42:23;;;;;;;114.10;14.13;;;;;;;;;;4950746;29;20039;-56
2023/04/27 00:44:50;;;;;;;98.55;12.73;;;;;;;;;;4949085;28;20130;-59
2023/04/27 00:47:16;;;;;;;69.95;10.15;;;;;;;;;;4946910;28;20142;-55
2023/04/27 00:49:43;;;;;;;112.07;13.65;;;;;;;;;;4950466;29;20426;-58
2023/04/27 00:52:10;;;;;;;117.15;14.13;;;;;;;;;;4941974;28;20059;-58
2023/04/27 00:54:37;;;;;;;74.85;11.45;;;;;;;;;;4949087;28;20039;-57
2023/04/27 00:57:03;;;;;;;82.43;12.10;;;;;;;;;;4951331;29;20094;-56
2023/04/27 00:59:30;;;;;;;117.25;13.82;;;;;;;;;;4948590;28;20073;-57
2023/04/27 01:01:57;;;;;;;46.70;9.05;;;;;;;;;;4950492;28;20047;-60
2023/04/27 01:04:23;;;;;;;74.68;10.63;;;;;;;;;;4950549;28;20422;-56
2023/04/27 01:06:50;;;;;;;92.70;12.70;;;;;;;;;;4948788;29;20047;-59
2023/04/27 01:09:18;;;;;;;98.28;12.80;;;;;;;;;;4948229;28;20102;-58
2023/04/27 01:11:48;;;;;;;91.55;12.48;;;;;;;;;;4949008;28;20047;-57
2023/04/27 01:14:16;;;;;;;106.28;13.45;;;;;;;;;;4939379;28;20059;-56
2023/04/27 01:16:43;;;;;;;73.70;10.98;;;;;;;;;;4924613;29;20058;-54
2023/04/27 01:19:09;;;;;;;78.60;12.45;;;;;;;;;;4945493;28;20053;-54
2023/04/27 01:21:36;;;;;;;147.15;17.15;;;;;;;;;;4948097;29;20078;-59
2023/04/27 01:24:06;;;;;;;76.80;11.23;;;;;;;;;;4949657;28;20126;-55
2023/04/27 01:26:35;;;;;;;58.33;9.63;;;;;;;;;;4950040;29;20055;-56
2023/04/27 01:29:02;;;;;;;125.00;13.73;;;;;;;;;;4949577;28;20067;-59
2023/04/27 01:31:28;;;;;;;109.47;13.48;;;;;;;;;;4947076;28;20450;-59
2023/04/27 01:33:55;;;;;;;66.30;10.15;;;;;;;;;;4950156;29;20378;-59
2023/04/27 01:36:21;;;;;;;153.00;15.98;;;;;;;;;;4951585;28;20584;-57
2023/04/27 01:38:48;;;;;;;57.40;9.52;;;;;;;;;;4947011;28;20102;-54
2023/04/27 01:41:14;;;;;;;108.22;13.23;;;;;;;;;;4949759;29;20058;-54
2023/04/27 01:43:42;;;;;;;128.02;14.45;;;;;;;;;;4948371;28;20054;-56
2023/04/27 01:46:13;;;;;;;78.35;11.77;;;;;;;;;;4948807;28;20485;-54
2023/04/27 01:48:40;;;;;;;116.15;14.43;;;;;;;;;;4949353;29;20051;-53
2023/04/27 01:51:06;;;;;;;103.40;14.48;;;;;;;;;;4949085;29;20055;-55
2023/04/27 01:53:33;;;;;;;82.93;12.35;;;;;;;;;;4949495;29;20066;-59
2023/04/27 01:56:00;;;;;;;51.83;10.23;;;;;;;;;;4950162;29;20043;-58
2023/04/27 01:58:26;;;;;;;100.65;13.35;;;;;;;;;;4946917;28;20148;-58
2023/04/27 02:03:56;;;;;;;55.78;10.43;;;;;;;;;;5006694;28;20049;-65
2023/04/27 02:06:23;;;;;;;82.82;12.40;;;;;;;;;;5000583;28;20460;-64
2023/04/27 02:08:49;;;;;;;90.30;13.05;;;;;;;;;;5000549;28;20049;-64
2023/04/27 02:11:16;;;;;;;102.50;14.18;;;;;;;;;;5000955;28;20056;-63
2023/04/27 02:13:42;;;;;;;90.50;12.10;;;;;;;;;;4999500;28;20121;-63
2023/04/27 02:16:09;;;;;;;83.53;12.35;;;;;;;;;;5001457;28;20053;-65
2023/04/27 02:18:37;;;;;;;133.73;15.57;;;;;;;;;;5000846;28;20100;-65
2023/04/27 02:21:08;;;;;;;81.65;11.93;;;;;;;;;;5005634;28;20053;-63
2023/04/27 02:23:35;;;;;;;102.07;12.40;;;;;;;;;;5002548;28;20049;-64
2023/04/27 02:26:02;;;;;;;69.40;10.40;;;;;;;;;;4999718;28;20042;-64
2023/04/27 02:28:28;;;;;;;86.97;11.52;;;;;;;;;;5003454;28;20121;-63
2023/04/27 02:30:55;;;;;;;72.63;10.90;;;;;;;;;;5001135;28;20531;-65
2023/04/27 02:33:22;;;;;;;91.07;12.05;;;;;;;;;;5000333;28;20914;-64
2023/04/27 02:35:49;;;;;;;71.20;11.00;;;;;;;;;;4998822;28;20046;-64
2023/04/27 02:38:16;;;;;;;85.28;11.63;;;;;;;;;;5005676;28;20116;-64
2023/04/27 02:40:42;;;;;;;106.38;13.07;;;;;;;;;;5003819;28;20084;-63
2023/04/27 02:43:09;;;;;;;56.63;10.60;;;;;;;;;;4986593;28;20125;-63
2023/04/27 02:45:37;;;;;;;94.85;12.20;;;;;;;;;;4999466;28;20062;-65
2023/04/27 02:48:04;;;;;;;87.43;12.38;;;;;;;;;;4999722;28;20129;-64
2023/04/27 02:50:32;;;;;;;97.65;13.73;;;;;;;;;;4999748;28;20041;-64
2023/04/27 02:52:59;;;;;;;59.88;10.38;;;;;;;;;;4998817;28;20034;-63
2023/04/27 02:55:26;;;;;;;77.55;12.73;;;;;;;;;;5004139;28;20137;-65
2023/04/27 02:57:53;;;;;;;71.72;11.80;;;;;;;;;;5000691;28;20042;-65
2023/04/27 03:00:19;;;;;;;134.40;15.57;;;;;;;;;;5001151;28;20531;-65
2023/04/27 03:02:46;;;;;;;86.10;13.30;;;;;;;;;;5007455;28;20058;-64
2023/04/27 03:05:13;;;;;;;79.45;13.73;;;;;;;;;;5000103;28;20042;-62
2023/04/27 03:07:39;;;;;;;79.95;11.68;;;;;;;;;;5000940;28;20121;-63
2023/04/27 03:10:06;;;;;;;132.75;16.10;;;;;;;;;;5000536;28;20076;-64
2023/04/27 03:12:33;;;;;;;121.72;16.60;;;;;;;;;;4999483;28;20052;-63
2023/04/27 03:15:00;;;;;;;78.38;13.93;;;;;;;;;;5010073;28;20073;-64
2023/04/27 03:17:26;;;;;;;123.28;15.85;;;;;;;;;;5002046;28;20045;-64
2023/04/27 03:19:53;;;;;;;82.32;12.60;;;;;;;;;;4997917;28;20045;-64
2023/04/27 03:22:22;;;;;;;80.75;13.18;;;;;;;;;;5005912;28;20096;-64
2023/04/27 03:24:49;;;;;;;108.20;16.00;;;;;;;;;;5012023;28;20054;-63
2023/04/27 03:27:15;;;;;;;68.43;13.10;;;;;;;;;;4998398;28;20503;-64
2023/04/27 03:29:42;;;;;;;84.72;14.05;;;;;;;;;;5006304;28;20049;-64
2023/04/27 03:32:10;;;;;;;160.20;18.63;;;;;;;;;;4979674;28;20133;-63
2023/04/27 03:34:36;;;;;;;92.65;14.55;;;;;;;;;;5002506;28;20046;-64
2023/04/27 03:37:05;;;;;;;82.47;15.10;;;;;;;;;;5000661;28;20038;-63
2023/04/27 03:39:35;;;;;;;109.65;16.10;;;;;;;;;;4998791;28;20747;-63
2023/04/27 03:42:02;;;;;;;84.40;14.43;;;;;;;;;;5000601;28;20649;-64
2023/04/27 03:44:32;;;;;;;81.30;15.02;;;;;;;;;;5002682;28;20042;-62
2023/04/27 03:46:59;;;;;;;86.63;15.32;;;;;;;;;;4998050;28;20096;-64
2023/04/27 03:49:26;;;;;;;76.25;13.60;;;;;;;;;;4999295;28;20092;-62
2023/04/27 03:51:53;;;;;;;108.65;16.13;;;;;;;;;;5011711;28;20128;-65
2023/04/27 03:54:20;;;;;;;114.90;16.13;;;;;;;;;;5010050;28;20105;-63
2023/04/27 03:56:46;;;;;;;74.25;13.00;;;;;;;;;;5003489;28;20419;-64
2023/04/27 03:59:13;;;;;;;105.32;17.05;;;;;;;;;;4997477;28;20480;-65
2023/04/27 04:01:47;;;;;;;137.32;18.85;;;;;;;;;;4996302;28;20081;-63
2023/04/27 04:04:14;;;;;;;133.15;18.52;;;;;;;;;;4999693;28;20136;-64
2023/04/27 04:06:41;;;;;;;156.27;18.13;;;;;;;;;;5000324;28;20463;-63
2023/04/27 04:09:07;;;;;;;89.75;14.02;;;;;;;;;;4997345;28;20050;-63
2023/04/27 04:11:34;;;;;;;88.90;14.90;;;;;;;;;;4998100;28;20050;-67
2023/04/27 04:14:04;;;;;;;131.88;18.67;;;;;;;;;;5004191;28;20074;-63
2023/04/27 04:16:32;;;;;;;98.05;17.38;;;;;;;;;;4999699;28;20053;-64
2023/04/27 04:18:58;;;;;;;97.25;15.00;;;;;;;;;;5010434;28;20042;-64
2023/04/27 04:21:25;;;;;;;145.25;19.23;;;;;;;;;;5011940;28;20136;-64
2023/04/27 04:23:51;;;;;;;75.10;13.05;;;;;;;;;;5006586;28;20084;-63
2023/04/27 04:26:19;;;;;;;98.93;14.57;;;;;;;;;;5010097;28;20042;-64
2023/04/27 04:28:45;;;;;;;158.10;20.17;;;;;;;;;;4999567;28;20046;-63
2023/04/27 04:31:13;;;;;;;112.18;17.35;;;;;;;;;;5007860;28;20490;-65
2023/04/27 04:33:40;;;;;;;94.80;14.98;;;;;;;;;;4987582;28;20091;-63
2023/04/27 04:36:07;;;;;;;151.65;25.65;;;;;;;;;;4997835;28;20070;-62
2023/04/27 04:38:33;;;;;;;60.80;14.65;;;;;;;;;;4981906;28;20484;-65
2023/04/27 04:41:01;;;;;;;95.15;24.75;;;;;;;;;;4993797;28;20106;-62
2023/04/27 04:43:30;;;;;;;133.88;39.90;;;;;;;;;;5004272;28;20101;-62
2023/04/27 04:45:57;;;;;;;137.25;53.90;;;;;;;;;;4998944;28;20042;-64
2023/04/27 04:48:24;;;;;;;109.57;33.22;;;;;;;;;;4997457;28;20073;-62
2023/04/27 04:50:51;;;;;;;117.60;38.42;;;;;;;;;;5002787;28;20054;-64
2023/04/27 04:53:20;;;;;;;90.55;35.10;;;;;;;;;;4999588;28;20042;-61
2023/04/27 04:55:46;;;;;;;100.20;32.40;;;;;;;;;;4997682;28;20558;-63
2023/04/27 04:58:13;;;;;;;160.75;34.67;;;;;;;;;;4996616;28;20054;-65
2023/04/27 05:00:40;;;;;;;99.22;26.48;;;;;;;;;;4999566;28;20060;-62
2023/04/27 05:03:07;;;;;;;88.72;21.67;;;;;;;;;;4996474;28;20062;-62
2023/04/27 05:05:34;;;;;;;110.25;22.13;;;;;;;;;;4997869;28;20042;-63
2023/04/27 05:08:00;;;;;;;78.93;19.15;;;;;;;;;;5002724;28;20760;-62
2023/04/27 05:10:27;;;;;;;93.88;23.17;;;;;;;;;;4988133;28;20169;-61
2023/04/27 05:12:54;;;;;;;121.05;24.65;;;;;;;;;;4998267;28;20060;-64
2023/04/27 05:15:20;;;;;;;110.55;25.08;;;;;;;;;;4998199;28;20137;-66
2023/04/27 05:17:47;;;;;;;129.82;26.35;;;;;;;;;;4997400;28;20636;-64
2023/04/27 05:20:14;;;;;;;101.55;23.42;;;;;;;;;;4994424;28;20046;-66
2023/04/27 05:22:41;;;;;;;84.20;27.77;;;;;;;;;;4995173;28;20046;-62
2023/04/27 05:25:08;;;;;;;69.93;19.23;;;;;;;;;;5000092;28;20042;-62
2023/04/27 05:27:35;;;;;;;153.98;21.98;;;;;;;;;;4998449;28;20057;-62
2023/04/27 05:30:02;;;;;;;113.05;16.75;;;;;;;;;;5000828;28;20054;-63
2023/04/27 05:32:29;;;;;;;67.30;13.50;;;;;;;;;;4999785;28;20042;-62
2023/04/27 05:34:55;;;;;;;64.38;14.35;;;;;;;;;;4996661;28;20817;-64
2023/04/27 05:37:22;;;;;;;91.15;21.48;;;;;;;;;;4999487;28;20042;-62
2023/04/27 05:39:48;;;;;;;105.05;49.58;;;;;;;;;;5013774;28;20054;-62
2023/04/27 05:42:15;;;;;;;99.60;51.85;;;;;;;;;;5004809;28;20042;-65
2023/04/27 05:44:42;;;;;;;149.35;100.50;;;;;;;;;;5010012;28;20054;-63
2023/04/27 05:47:09;;;;;;;132.20;98.03;;;;;;;;;;5002422;28;20395;-62
2023/04/27 05:49:36;;;;;;;112.18;57.15;;;;;;;;;;5003041;28;20145;-61
2023/04/27 05:52:03;;;;;;;141.30;69.63;;;;;;;;;;5001578;28;20053;-62
2023/04/27 05:54:29;;;;;;;250.45;186.02;;;;;;;;;;5001188;28;20056;-63
2023/04/27 05:56:56;;;;;;;116.10;104.22;;;;;;;;;;5002336;28;20516;-63
2023/04/27 05:59:22;;;;;;;176.45;91.38;;;;;;;;;;4997614;28;20042;-63
2023/04/27 06:01:49;;;;;;;141.93;84.78;;;;;;;;;;4999533;28;20448;-63
2023/04/27 06:04:16;;;;;;;80.13;39.40;;;;;;;;;;4999492;28;20588;-64
2023/04/27 06:06:43;;;;;;;148.68;33.00;;;;;;;;;;5002802;28;20125;-62
2023/04/27 06:09:10;;;;;;;99.32;26.48;;;;;;;;;;5000586;28;20053;-62
2023/04/27 06:11:37;;;;;;;83.88;20.17;;;;;;;;;;4998246;28;20050;-62
2023/04/27 06:14:03;;;;;;;125.32;22.40;;;;;;;;;;4998222;28;20068;-62
2023/04/27 06:16:30;;;;;;;78.65;18.13;;;;;;;;;;5002779;28;20049;-62
2023/04/27 06:18:56;;;;;;;107.72;20.92;;;;;;;;;;5000164;28;20096;-62
2023/04/27 06:21:23;;;;;;;169.32;21.30;;;;;;;;;;4993438;28;20052;-62
2023/04/27 06:23:49;;;;;;;82.18;16.88;;;;;;;;;;5000157;28;20046;-62
2023/04/27 06:26:16;;;;;;;108.75;20.25;;;;;;;;;;5003200;28;20039;-64
2023/04/27 06:28:42;;;;;;;157.38;24.00;;;;;;;;;;5001640;28;20049;-62
2023/04/27 06:31:09;;;;;;;120.45;17.65;;;;;;;;;;4999843;28;20746;-62
2023/04/27 06:33:35;;;;;;;138.13;19.52;;;;;;;;;;4998789;28;20835;-62
2023/04/27 06:36:02;;;;;;;105.78;21.38;;;;;;;;;;4999767;28;20396;-63
2023/04/27 06:38:29;;;;;;;98.55;48.92;;;;;;;;;;5001195;28;20072;-62
2023/04/27 06:40:55;;;;;;;85.22;27.55;;;;;;;;;;5003659;28;20042;-64
2023/04/27 06:43:22;;;;;;;96.60;26.05;;;;;;;;;;5017039;28;20129;-64
2023/04/27 06:45:48;;;;;;;75.85;26.92;;;;;;;;;;5001376;28;20495;-62
2023/04/27 06:48:15;;;;;;;104.47;17.02;;;;;;;;;;4996855;28;20043;-63
2023/04/27 06:50:42;;;;;;;80.97;15.38;;;;;;;;;;4999963;28;20061;-63
2023/04/27 06:53:09;;;;;;;87.85;12.63;;;;;;;;;;4983219;28;20038;-63
2023/04/27 06:55:36;;;;;;;87.78;12.30;;;;;;;;;;4999542;28;20058;-64
2023/04/27 06:58:03;;;;;;;119.38;15.00;;;;;;;;;;5002156;28;20117;-64
2023/04/27 07:00:30;;;;;;;112.45;14.38;;;;;;;;;;5000110;28;20098;-64
2023/04/27 07:02:56;;;;;;;72.03;11.25;;;;;;;;;;5004281;28;20148;-64
2023/04/27 07:05:23;;;;;;;94.93;11.45;;;;;;;;;;5001479;28;20385;-65
2023/04/27 07:07:50;;;;;;;87.10;11.07;;;;;;;;;;5000643;28;20449;-62
2023/04/27 07:10:16;;;;;;;59.42;10.02;;;;;;;;;;4998652;28;20049;-63
2023/04/27 07:12:43;;;;;;;99.15;12.13;;;;;;;;;;5000589;28;20038;-63
2023/04/27 07:15:10;;;;;;;116.50;13.20;;;;;;;;;;5001463;28;20046;-63
2023/04/27 07:17:36;;;;;;;64.60;12.98;;;;;;;;;;4999636;28;20050;-63
2023/04/27 07:20:04;;;;;;;65.75;9.55;;;;;;;;;;5018807;28;20411;-64
2023/04/27 07:22:32;;;;;;;124.43;14.07;;;;;;;;;;5002255;28;20038;-63
2023/04/27 07:24:58;;;;;;;48.33;8.27;;;;;;;;;;5000788;28;20046;-63
2023/04/27 07:27:25;;;;;;;80.75;9.82;;;;;;;;;;5000389;28;20054;-62
2023/04/27 07:29:52;;;;;;;107.63;13.15;;;;;;;;;;4996176;28;20106;-62
2023/04/27 07:32:18;;;;;;;43.67;7.22;;;;;;;;;;4989367;28;20062;-64
2023/04/27 07:34:47;;;;;;;63.25;28.35;;;;;;;;;;4998050;28;20053;-62
2023/04/27 07:37:19;;;;;;;45.25;7.93;;;;;;;;;;4994301;28;20042;-62
2023/04/27 07:39:47;;;;;;;71.97;8.02;;;;;;;;;;5000249;28;20112;-62
2023/04/27 07:42:14;;;;;;;89.50;9.50;;;;;;;;;;5004533;28;20099;-65
2023/04/27 07:44:41;;;;;;;93.00;9.18;;;;;;;;;;5001831;28;20100;-62
2023/04/27 07:47:08;;;;;;;64.90;6.65;;;;;;;;;;4997523;28;20571;-62
2023/04/27 07:49:34;;;;;;;79.93;7.63;;;;;;;;;;5001437;28;20049;-62
2023/04/27 07:52:01;;;;;;;71.20;7.07;;;;;;;;;;5000119;28;20033;-64
2023/04/27 07:54:28;;;;;;;75.30;7.45;;;;;;;;;;4998394;28;20060;-63
2023/04/27 07:56:55;;;;;;;50.88;6.45;;;;;;;;;;5001453;28;20034;-63
2023/04/27 07:59:21;;;;;;;75.43;7.78;;;;;;;;;;5001208;28;20073;-62
2023/04/27 08:01:48;;;;;;;105.85;9.85;;;;;;;;;;5000988;28;20141;-62
2023/04/27 08:04:14;;;;;;;86.07;8.52;;;;;;;;;;4999932;28;20040;-63
2023/04/27 08:06:42;;;;;;;107.85;9.43;;;;;;;;;;5000550;28;20056;-63
2023/04/27 08:09:10;;;;;;;67.03;6.53;;;;;;;;;;4999034;28;20564;-62
2023/04/27 08:11:37;;;;;;;96.43;9.07;;;;;;;;;;4997015;28;20050;-63
2023/04/27 08:14:03;;;;;;;95.28;8.80;;;;;;;;;;4998250;28;20038;-61
2023/04/27 08:16:30;;;;;;;95.20;8.45;;;;;;;;;;5003998;28;20050;-63
2023/04/27 08:18:57;;;;;;;53.85;5.97;;;;;;;;;;5000069;28;20045;-63
2023/04/27 08:21:27;;;;;;;118.03;10.13;;;;;;;;;;5001492;28;20046;-62
2023/04/27 08:23:54;;;;;;;53.28;6.40;;;;;;;;;;4998836;28;20165;-63
2023/04/27 08:26:20;;;;;;;69.32;6.97;;;;;;;;;;4998884;28;20052;-65
2023/04/27 08:28:50;;;;;;;81.68;7.43;;;;;;;;;;4998110;28;20506;-62
2023/04/27 08:31:16;;;;;;;56.03;5.32;;;;;;;;;;5000482;28;20443;-64
2023/04/27 08:33:43;;;;;;;82.63;7.43;;;;;;;;;;4999525;28;20129;-66
2023/04/27 08:36:10;;;;;;;82.03;7.43;;;;;;;;;;4998655;28;20509;-62
2023/04/27 08:38:36;;;;;;;67.70;6.57;;;;;;;;;;5002594;28;20054;-63
2023/04/27 08:41:02;;;;;;;64.10;5.88;;;;;;;;;;5001368;28;20041;-62
2023/04/27 08:43:43;;;;;;;60.47;6.03;;;;;;;;;;4996762;28;20053;-63
2023/04/27 08:46:10;;;;;;;83.43;7.95;;;;;;;;;;4999985;28;20068;-65
2023/04/27 08:48:36;;;;;;;141.40;11.38;;;;;;;;;;4997441;28;20132;-63
2023/04/27 08:51:06;;;;;;;62.38;5.93;;;;;;;;;;5000961;28;20518;-62
2023/04/27 08:53:33;;;;;;;59.00;5.88;;;;;;;;;;4999727;28;20634;-62
2023/04/27 08:56:00;;;;;;;121.15;10.07;;;;;;;;;;5000677;28;20072;-62
2023/04/27 08:58:36;;;;;;;40.50;4.97;;;;;;;;;;4999919;28;20046;-62
2023/04/27 09:01:06;;;;;;;67.05;6.57;;;;;;;;;;4998406;28;20046;-64
2023/04/27 09:03:33;;;;;;;104.30;9.05;;;;;;;;;;4994178;28;20058;-63
2023/04/27 09:06:03;;;;;;;52.95;5.43;;;;;;;;;;5001527;28;20080;-64
2023/04/27 09:08:47;;;;;;;122.63;10.50;;;;;;;;;;4998609;28;20543;-63
2023/04/27 09:11:15;;;;;;;78.57;7.18;;;;;;;;;;4997842;28;20116;-62
2023/04/27 09:13:45;;;;;;;90.43;8.15;;;;;;;;;;5005999;28;20046;-64
2023/04/27 09:16:13;;;;;;;76.05;7.45;;;;;;;;;;4999089;28;20045;-62
2023/04/27 09:18:40;;;;;;;101.13;9.48;;;;;;;;;;4996437;28;20077;-62
2023/04/27 09:21:07;;;;;;;77.07;7.03;;;;;;;;;;4993250;28;20049;-63
2023/04/27 09:23:34;;;;;;;63.47;5.95;;;;;;;;;;4999379;28;20045;-62
2023/04/27 09:26:03;;;;;;;58.97;5.75;;;;;;;;;;4996272;28;20062;-62
2023/04/27 09:28:30;;;;;;;88.70;7.85;;;;;;;;;;4999082;28;20046;-63
2023/04/27 09:30:58;;;;;;;54.40;5.97;;;;;;;;;;5000787;28;20062;-64
2023/04/27 09:33:26;;;;;;;87.63;9.00;;;;;;;;;;4982130;28;20391;-64
2023/04/27 09:35:53;;;;;;;91.63;9.32;;;;;;;;;;4999394;28;20049;-62
2023/04/27 09:38:20;;;;;;;56.38;6.72;;;;;;;;;;4997997;28;20117;-61
2023/04/27 09:40:48;;;;;;;61.47;6.85;;;;;;;;;;4996927;28;20042;-63
2023/04/27 09:43:14;;;;;;;108.95;10.40;;;;;;;;;;4993176;28;20434;-64
2023/04/27 09:45:41;;;;;;;68.85;7.13;;;;;;;;;;4996303;28;20051;-62
2023/04/27 09:48:08;;;;;;;72.53;8.40;;;;;;;;;;4996678;28;20408;-64
2023/04/27 09:50:35;;;;;;;116.10;9.85;;;;;;;;;;4999802;28;20046;-63
2023/04/27 09:53:26;;;;;;;92.20;8.48;;;;;;;;;;4999985;28;20042;-62
2023/04/27 09:56:12;;;;;;;107.60;10.02;;;;;;;;;;4981936;28;20034;-61
2023/04/27 09:58:42;;;;;;;91.63;8.52;;;;;;;;;;4994789;28;20077;-62
2023/04/27 10:01:17;;;;;;;127.65;11.10;;;;;;;;;;4999069;28;20042;-62
2023/04/27 10:04:02;;;;;;;68.63;7.85;;;;;;;;;;4995255;28;20037;-62
2023/04/27 10:06:45;;;;;;;136.02;11.35;;;;;;;;;;4993309;28;20096;-63
2023/04/27 10:09:11;;;;;;;68.20;7.18;;;;;;;;;;5004051;28;20108;-63
2023/04/27 10:11:39;;;;;;;86.80;7.93;;;;;;;;;;5001221;28;20038;-62
2023/04/27 10:14:07;;;;;;;57.10;6.28;;;;;;;;;;4998109;28;20039;-62
2023/04/27 10:16:45;;;;;;;136.15;12.32;;;;;;;;;;4998706;28;20096;-62
2023/04/27 10:19:12;;;;;;;82.45;8.38;;;;;;;;;;4996617;28;20375;-62
2023/04/27 10:21:55;;;;;;;120.28;10.55;;;;;;;;;;4999014;28;20049;-61
2023/04/27 10:24:38;;;;;;;133.95;10.98;;;;;;;;;;4999130;28;20479;-65
2023/04/27 10:27:06;;;;;;;96.17;9.10;;;;;;;;;;4996678;28;20043;-62
2023/04/27 10:29:36;;;;;;;104.53;9.52;;;;;;;;;;5005675;28;20709;-62
2023/04/27 10:32:26;;;;;;;72.63;7.75;;;;;;;;;;5002566;28;20133;-62
2023/04/27 10:35:02;;;;;;;112.65;9.95;;;;;;;;;;4992433;28;20128;-62
2023/04/27 10:37:40;;;;;;;67.13;7.18;;;;;;;;;;5001782;28;20042;-62
2023/04/27 10:40:13;;;;;;;130.40;10.95;;;;;;;;;;4999779;28;20048;-63
2023/04/27 10:42:40;;;;;;;92.25;9.27;;;;;;;;;;4995590;28;20528;-62
2023/04/27 10:45:07;;;;;;;107.65;9.70;;;;;;;;;;5000257;28;20046;-62
2023/04/27 10:47:38;;;;;;;113.15;10.43;;;;;;;;;;5002110;28;20047;-61
2023/04/27 10:50:05;;;;;;;80.32;7.75;;;;;;;;;;5002481;28;20100;-62
2023/04/27 10:52:32;;;;;;;64.95;6.43;;;;;;;;;;5001009;28;20104;-65
2023/04/27 10:55:03;;;;;;;68.78;6.65;;;;;;;;;;4999265;28;20124;-63
2023/04/27 10:57:30;;;;;;;81.50;7.18;;;;;;;;;;5000423;28;20129;-62
2023/04/27 10:59:56;;;;;;;66.25;6.45;;;;;;;;;;5003202;28;20376;-64
2023/04/27 11:02:27;;;;;;;71.32;6.95;;;;;;;;;;5000725;28;20053;-62
2023/04/27 11:04:55;;;;;;;30.13;4.47;;;;;;;;;;4998495;28;20048;-62
2023/04/27 11:07:23;;;;;;;94.35;9.85;;;;;;;;;;5001203;28;20042;-62
2023/04/27 11:09:49;;;;;;;42.58;5.05;;;;;;;;;;5001023;28;20057;-63
2023/04/27 11:12:17;;;;;;;68.90;6.80;;;;;;;;;;5001245;28;20054;-63
2023/04/27 11:14:44;;;;;;;109.70;9.27;;;;;;;;;;5000770;28;20049;-63
2023/04/27 11:17:12;;;;;;;79.60;7.38;;;;;;;;;;4999777;28;20101;-62
2023/04/27 11:19:46;;;;;;;77.85;7.45;;;;;;;;;;5000618;28;20054;-62
2023/04/27 11:22:17;;;;;;;135.38;11.57;;;;;;;;;;4999667;28;20376;-62
2023/04/27 11:24:50;;;;;;;97.80;8.27;;;;;;;;;;5000754;28;20054;-61
2023/04/27 11:27:16;;;;;;;80.22;7.32;;;;;;;;;;5001636;28;20054;-65
2023/04/27 11:29:43;;;;;;;82.88;7.50;;;;;;;;;;5002035;28;20488;-63
2023/04/27 11:32:19;;;;;;;73.88;6.82;;;;;;;;;;4994458;28;20384;-62
2023/04/27 11:34:50;;;;;;;112.60;10.25;;;;;;;;;;5003796;28;20448;-63
2023/04/27 11:37:23;;;;;;;42.28;4.82;;;;;;;;;;5000811;28;20040;-62
2023/04/27 11:39:49;;;;;;;50.72;5.68;;;;;;;;;;5001192;28;20066;-63
2023/04/27 11:42:23;;;;;;;91.85;8.48;;;;;;;;;;4993884;28;20042;-61
2023/04/27 11:44:53;;;;;;;52.25;6.03;;;;;;;;;;5005002;28;20045;-61
2023/04/27 11:47:21;;;;;;;123.72;10.57;;;;;;;;;;4994355;28;20211;-62
2023/04/27 11:49:48;;;;;;;74.82;7.45;;;;;;;;;;5001489;28;20045;-62
2023/04/27 11:52:15;;;;;;;54.03;5.50;;;;;;;;;;4999599;28;20124;-62
2023/04/27 11:54:49;;;;;;;126.00;11.13;;;;;;;;;;4999337;28;20089;-64
2023/04/27 11:57:15;;;;;;;71.13;7.05;;;;;;;;;;4999656;28;20054;-62
2023/04/27 11:59:42;;;;;;;82.32;7.30;;;;;;;;;;4999360;28;20049;-62
2023/04/27 12:02:09;;;;;;;158.38;13.18;;;;;;;;;;4999775;28;20046;-63
2023/04/27 12:04:35;;;;;;;55.13;5.95;;;;;;;;;;5002272;28;20050;-62
2023/04/27 12:07:03;;;;;;;85.55;8.07;;;;;;;;;;4999775;28;20034;-62
2023/04/27 12:09:29;;;;;;;141.85;12.57;;;;;;;;;;4998962;28;20077;-62
2023/04/27 12:11:56;;;;;;;53.13;5.43;;;;;;;;;;4997967;28;20121;-62
2023/04/27 12:14:23;;;;;;;44.17;5.38;;;;;;;;;;4999890;28;20042;-62
2023/04/27 12:16:50;;;;;;;105.50;8.63;;;;;;;;;;4997273;28;20088;-62
2023/04/27 12:19:17;;;;;;;54.60;5.47;;;;;;;;;;5001041;28;20726;-62
2023/04/27 12:21:44;;;;;;;101.97;9.02;;;;;;;;;;5003828;28;20165;-62
2023/04/27 12:24:10;;;;;;;103.70;8.65;;;;;;;;;;5001784;28;20065;-63
2023/04/27 12:26:38;;;;;;;66.45;6.20;;;;;;;;;;5001350;28;20056;-61
2023/04/27 12:29:05;;;;;;;68.50;6.68;;;;;;;;;;4997754;28;20104;-63
2023/04/27 12:31:32;;;;;;;148.00;12.02;;;;;;;;;;5015184;28;20051;-65
2023/04/27 12:33:59;;;;;;;68.40;6.35;;;;;;;;;;5000131;28;20045;-64
2023/04/27 12:36:26;;;;;;;84.63;7.45;;;;;;;;;;4997455;28;20042;-62
2023/04/27 12:38:56;;;;;;;99.32;8.43;;;;;;;;;;4996289;28;20053;-61
2023/04/27 12:41:23;;;;;;;17.38;2.67;;;;;;;;;;5000684;28;20382;-61
2023/04/27 12:43:50;;;;;;;82.38;7.22;;;;;;;;;;5001738;28;20049;-61
2023/04/27 12:46:17;;;;;;;131.85;11.07;;;;;;;;;;4998308;28;20045;-63
2023/04/27 12:48:44;;;;;;;78.70;7.38;;;;;;;;;;4997429;28;22099;-61
2023/04/27 12:51:10;;;;;;;61.95;6.13;;;;;;;;;;4991350;28;20069;-64
2023/04/27 12:53:37;;;;;;;116.95;9.48;;;;;;;;;;4999393;28;20053;-62
2023/04/27 12:56:04;;;;;;;55.72;5.70;;;;;;;;;;4997412;28;20038;-63
2023/04/27 12:58:30;;;;;;;43.25;4.75;;;;;;;;;;4999526;28;20046;-62
2023/04/27 13:00:57;;;;;;;125.63;9.90;;;;;;;;;;4998972;28;20428;-64
2023/04/27 13:03:24;;;;;;;74.10;8.00;;;;;;;;;;4998870;28;20596;-66
2023/04/27 13:05:51;;;;;;;64.47;7.15;;;;;;;;;;5000163;28;20626;-62
2023/04/27 13:08:17;;;;;;;119.22;10.13;;;;;;;;;;4996238;28;20049;-63
2023/04/27 13:10:44;;;;;;;134.10;9.23;;;;;;;;;;4997416;28;20125;-62
2023/04/27 13:13:10;;;;;;;82.30;7.93;;;;;;;;;;4998115;28;20117;-62
2023/04/27 13:15:37;;;;;;;102.30;8.57;;;;;;;;;;5010046;28;20054;-62
2023/04/27 13:18:05;;;;;;;65.05;6.15;;;;;;;;;;4999444;28;20037;-61
2023/04/27 13:20:32;;;;;;;56.28;5.45;;;;;;;;;;5003611;28;20071;-62
2023/04/27 13:22:58;;;;;;;68.55;6.10;;;;;;;;;;4999426;28;20092;-63
2023/04/27 13:25:25;;;;;;;84.70;7.00;;;;;;;;;;4998386;28;20495;-62
2023/04/27 13:27:52;;;;;;;59.45;5.25;;;;;;;;;;4999339;28;20487;-61
2023/04/27 13:30:19;;;;;;;62.88;6.18;;;;;;;;;;4997938;28;20057;-63
2023/04/27 13:32:45;;;;;;;61.45;5.55;;;;;;;;;;4997550;28;20473;-62
2023/04/27 13:35:13;;;;;;;62.53;6.05;;;;;;;;;;4997975;28;20133;-62
2023/04/27 13:37:41;;;;;;;87.90;7.90;;;;;;;;;;4999018;28;20042;-61
2023/04/27 13:40:09;;;;;;;85.47;6.32;;;;;;;;;;4998934;28;20440;-62
2023/04/27 13:42:36;;;;;;;145.38;11.95;;;;;;;;;;5001237;28;20050;-62
2023/04/27 13:45:03;;;;;;;98.00;9.77;;;;;;;;;;4998257;28;20064;-62
2023/04/27 13:47:39;;;;;;;39.72;4.43;;;;;;;;;;4994686;28;20062;-62
2023/04/27 13:50:06;;;;;;;70.10;6.85;;;;;;;;;;4993250;28;20042;-62
2023/04/27 13:52:33;;;;;;;124.70;10.27;;;;;;;;;;4999029;28;20077;-62
2023/04/27 13:55:00;;;;;;;42.33;5.65;;;;;;;;;;4999873;28;20046;-63
2023/04/27 13:57:27;;;;;;;76.10;6.95;;;;;;;;;;4997449;28;20038;-64
2023/04/27 13:59:53;;;;;;;116.18;9.43;;;;;;;;;;5002335;28;20054;-62
2023/04/27 14:02:20;;;;;;;43.50;4.20;;;;;;;;;;5000632;28;20097;-61
2023/04/27 14:04:46;;;;;;;114.10;10.85;;;;;;;;;;5002331;28;20475;-64
2023/04/27 14:07:14;;;;;;;193.75;15.23;;;;;;;;;;5002800;28;20680;-62
2023/04/27 14:09:40;;;;;;;107.05;8.85;;;;;;;;;;4990585;28;20060;-62
2023/04/27 14:12:07;;;;;;;77.85;6.95;;;;;;;;;;5000931;28;20530;-61
2023/04/27 14:14:34;;;;;;;134.45;11.30;;;;;;;;;;5001351;28;20552;-64
2023/04/27 14:17:01;;;;;;;85.80;7.85;;;;;;;;;;5002864;28;20499;-62
2023/04/27 14:19:28;;;;;;;45.50;5.05;;;;;;;;;;5002272;28;20038;-65
2023/04/27 14:21:55;;;;;;;104.03;8.85;;;;;;;;;;5003617;28;20052;-62
2023/04/27 14:24:21;;;;;;;52.60;5.88;;;;;;;;;;5002319;28;20070;-61